Time;durP1;ratioP1;P1;durP2;ratioP2;P2;SDS_P1;SDS_P2;PMS_P1;PMS_P2;Temp;Humidity;BMP_temperature;BMP_pressure;BME280_temperature;BME280_humidity;BME280_pressure;Samples;Min_cycle;Max_cycle;Signal;HPM_P1;HPM_P2
2022/07/01 00:00:35;;;;;;;7.47;2.95;;;18.10;99.90;18.30;98777.00;;;;4960253;28;93721;-58
2022/07/01 00:03:01;;;;;;;6.43;2.80;;;18.10;99.90;18.20;98787.00;;;;4976706;28;93250;-58
2022/07/01 00:05:28;;;;;;;5.50;2.40;;;18.10;99.90;18.20;98787.00;;;;4930990;28;92145;-58
2022/07/01 00:07:54;;;;;;;9.02;2.92;;;18.00;99.90;18.20;98782.00;;;;4944834;28;94426;-58
2022/07/01 00:10:20;;;;;;;6.53;3.08;;;18.00;99.90;18.10;98782.00;;;;4978380;28;92303;-58
2022/07/01 00:12:46;;;;;;;4.80;2.72;;;17.90;99.90;18.00;98777.00;;;;4978531;28;92026;-58
2022/07/01 00:15:13;;;;;;;12.93;3.47;;;17.90;99.90;18.00;98775.00;;;;4978150;28;92117;-57
2022/07/01 00:17:39;;;;;;;8.93;3.05;;;17.80;99.90;17.90;98781.00;;;;4975916;28;92867;-57
2022/07/01 00:20:07;;;;;;;8.43;3.15;;;17.80;99.90;17.90;98792.00;;;;4978344;28;92602;-58
2022/07/01 00:22:34;;;;;;;7.72;3.30;;;17.70;99.90;17.90;98788.00;;;;4960874;28;92342;-58
2022/07/01 00:25:01;;;;;;;7.07;2.97;;;17.70;99.90;17.90;98794.00;;;;4978072;28;92686;-58
2022/07/01 00:27:27;;;;;;;9.02;2.97;;;17.70;99.90;17.80;98796.00;;;;4961809;28;94193;-58
2022/07/01 00:29:53;;;;;;;7.35;3.38;;;17.70;99.90;17.70;98794.00;;;;4978064;28;93246;-57
2022/07/01 00:32:20;;;;;;;5.65;2.97;;;17.60;99.90;17.60;98785.00;;;;4978701;28;91910;-57
2022/07/01 00:34:46;;;;;;;9.60;2.90;;;17.50;99.90;17.50;98791.00;;;;4948125;28;92365;-57
2022/07/01 00:37:12;;;;;;;10.20;3.00;;;17.50;99.90;17.50;98782.00;;;;4960196;28;92855;-57
2022/07/01 00:39:38;;;;;;;13.02;3.10;;;17.40;99.90;17.50;98779.00;;;;4976743;28;92689;-58
2022/07/01 00:42:05;;;;;;;10.10;3.05;;;17.40;99.90;17.40;98781.00;;;;4962409;28;92666;-58
2022/07/01 00:44:32;;;;;;;8.15;2.97;;;17.40;99.90;17.40;98781.00;;;;4978508;28;91690;-57
2022/07/01 00:47:03;;;;;;;7.07;3.05;;;17.40;99.90;17.40;98778.00;;;;4958336;28;93328;-58
2022/07/01 00:49:30;;;;;;;6.45;2.65;;;17.30;99.90;17.40;98791.00;;;;4977729;28;92690;-57
2022/07/01 00:51:57;;;;;;;7.75;2.80;;;17.30;99.90;17.50;98778.00;;;;4947288;28;93060;-58
2022/07/01 00:54:24;;;;;;;7.30;2.80;;;17.40;99.90;17.50;98779.00;;;;4976809;28;91972;-56
2022/07/01 00:56:50;;;;;;;5.40;2.30;;;17.40;99.90;17.30;98777.00;;;;4968739;28;92954;-58
2022/07/01 00:59:17;;;;;;;5.88;2.65;;;17.30;99.90;17.30;98777.00;;;;4949971;28;93578;-57
2022/07/01 01:01:43;;;;;;;6.22;2.88;;;17.20;99.90;17.30;98786.00;;;;4962752;28;92324;-57
2022/07/01 01:04:10;;;;;;;5.72;2.80;;;17.20;99.90;17.30;98787.00;;;;4981044;28;92194;-57
2022/07/01 01:06:36;;;;;;;10.98;2.45;;;17.20;99.90;17.30;98791.00;;;;4980617;28;93914;-57
2022/07/01 01:09:03;;;;;;;4.60;2.55;;;17.30;99.90;17.30;98784.00;;;;4963294;28;93907;-57
2022/07/01 01:11:30;;;;;;;3.72;2.20;;;17.30;99.90;17.30;98784.00;;;;4963277;28;93509;-57
2022/07/01 01:13:56;;;;;;;7.43;2.92;;;17.20;99.90;17.40;98781.00;;;;4963401;28;92184;-57
2022/07/01 01:16:23;;;;;;;6.63;2.45;;;17.30;99.90;17.50;98797.00;;;;4948547;28;94690;-57
2022/07/01 01:18:50;;;;;;;3.50;2.08;;;17.40;99.90;17.40;98785.00;;;;4951152;28;94439;-58
2022/07/01 01:21:17;;;;;;;6.65;2.17;;;17.40;99.90;17.40;98802.00;;;;4969059;28;92094;-57
2022/07/01 01:23:43;;;;;;;5.63;2.30;;;17.30;99.90;17.30;98781.00;;;;4980741;28;92290;-56
2022/07/01 01:26:21;;;;;;;4.10;2.08;;;17.30;99.90;17.30;98791.00;;;;4980745;28;92841;-57
2022/07/01 01:28:50;;;;;;;3.72;2.22;;;17.20;99.90;17.20;98780.00;;;;4980214;28;92630;-57
2022/07/01 01:31:17;;;;;;;6.25;2.60;;;17.20;99.90;17.20;98786.00;;;;4963753;28;92245;-58
2022/07/01 01:33:45;;;;;;;3.65;2.25;;;17.20;99.90;17.20;98782.00;;;;4964148;28;91613;-58
2022/07/01 01:36:11;;;;;;;7.75;2.30;;;17.20;99.90;17.20;98779.00;;;;4968514;28;93786;-56
2022/07/01 01:38:38;;;;;;;5.20;2.28;;;17.10;99.90;17.30;98782.00;;;;4979393;28;92537;-58
2022/07/01 02:07:29;;;;;;;6.07;2.53;;;18.60;99.90;19.80;98782.00;;;;4949548;28;95353;-57
2022/07/01 02:09:56;;;;;;;6.65;2.13;;;19.30;99.90;20.10;98786.00;;;;4959503;28;92401;-57
2022/07/01 02:12:22;;;;;;;6.22;2.40;;;19.60;99.90;20.70;98786.00;;;;4959117;28;92654;-57
2022/07/01 02:14:48;;;;;;;8.18;2.40;;;20.20;99.90;21.20;98779.00;;;;4941590;28;92188;-57
2022/07/01 02:17:14;;;;;;;5.35;2.20;;;20.70;98.70;21.50;98786.00;;;;4959410;28;93741;-58
2022/07/01 02:19:41;;;;;;;5.82;2.70;;;21.00;97.70;21.60;98797.00;;;;4958942;28;93205;-58
2022/07/01 02:22:07;;;;;;;5.32;2.33;;;21.20;96.30;21.50;98793.00;;;;4957615;28;93059;-57
2022/07/01 02:24:33;;;;;;;6.45;2.60;;;21.10;95.50;21.40;98798.00;;;;4958552;28;92065;-57
2022/07/01 02:27:00;;;;;;;6.30;2.20;;;21.00;95.40;21.90;98783.00;;;;4958672;28;93299;-55
2022/07/01 02:29:26;;;;;;;6.57;2.13;;;21.30;95.40;21.80;98786.00;;;;4959635;28;92828;-58
2022/07/01 02:31:53;;;;;;;5.07;2.33;;;21.20;94.60;22.00;98796.00;;;;4959475;28;92222;-57
2022/07/01 02:34:19;;;;;;;3.67;2.25;;;21.60;94.10;22.20;98808.00;;;;4942770;28;91839;-58
2022/07/01 02:36:46;;;;;;;7.45;2.08;;;21.60;93.70;22.00;98801.00;;;;4957415;28;94548;-58
2022/07/01 02:39:12;;;;;;;3.47;2.33;;;21.60;93.80;21.90;98804.00;;;;4959121;28;92475;-58
2022/07/01 02:44:23;;;;;;;8.82;2.53;;;21.60;93.40;22.30;98817.00;;;;4960070;28;92003;-58
2022/07/01 02:46:49;;;;;;;7.03;2.40;;;21.80;92.50;22.50;98824.00;;;;4957928;28;93819;-57
2022/07/01 02:49:16;;;;;;;5.05;2.40;;;22.10;91.50;22.50;98834.00;;;;4959240;28;93028;-58
2022/07/01 02:51:42;;;;;;;6.25;1.85;;;22.00;91.30;22.50;98840.00;;;;4958577;28;92024;-58
2022/07/01 02:54:08;;;;;;;8.70;2.13;;;22.10;91.20;22.50;98834.00;;;;4959239;28;92096;-58
2022/07/01 02:56:35;;;;;;;9.63;2.50;;;22.20;91.00;22.50;98852.00;;;;4959573;28;92774;-58
2022/07/01 02:59:01;;;;;;;4.47;2.25;;;22.00;91.00;22.30;98843.00;;;;4925738;28;94336;-58
2022/07/01 03:01:27;;;;;;;4.32;1.95;;;21.90;90.90;22.30;98833.00;;;;4959169;28;92014;-58
2022/07/01 03:03:54;;;;;;;8.73;2.40;;;21.90;90.70;22.60;98844.00;;;;4942182;28;92143;-57
2022/07/01 03:06:20;;;;;;;4.45;2.08;;;22.20;90.60;22.70;98834.00;;;;4971788;28;94169;-58
2022/07/01 03:08:46;;;;;;;3.80;2.30;;;22.30;90.20;22.90;98842.00;;;;4979089;28;93517;-58
2022/07/01 03:11:13;;;;;;;12.05;2.65;;;22.40;90.00;22.90;98847.00;;;;4979386;28;92035;-58
2022/07/01 03:13:39;;;;;;;7.43;2.13;;;22.40;88.90;23.10;98847.00;;;;4962115;28;92506;-56
2022/07/01 03:16:05;;;;;;;6.75;2.33;;;22.70;89.30;23.30;98854.00;;;;4979247;28;92785;-58
2022/07/01 03:18:31;;;;;;;4.38;2.20;;;22.80;88.20;23.60;98864.00;;;;4978608;28;92920;-57
2022/07/01 03:20:57;;;;;;;5.63;2.40;;;23.00;87.60;23.70;98866.00;;;;4978895;28;92019;-58
2022/07/01 03:23:24;;;;;;;5.82;2.20;;;23.20;86.40;23.60;98864.00;;;;4979044;28;91477;-58
2022/07/01 03:25:50;;;;;;;5.85;2.10;;;23.10;87.10;23.60;98860.00;;;;4977381;28;93226;-58
2022/07/01 03:28:17;;;;;;;4.95;2.00;;;23.20;85.10;23.50;98876.00;;;;4978763;28;92091;-58
2022/07/01 03:30:43;;;;;;;4.53;2.13;;;23.00;85.00;23.70;98863.00;;;;4978088;28;93348;-58
2022/07/01 03:33:10;;;;;;;4.40;1.75;;;23.10;83.30;24.00;98860.00;;;;4961544;28;92106;-58
2022/07/01 03:35:36;;;;;;;7.55;2.10;;;23.40;81.00;23.80;98863.00;;;;4978424;28;92820;-58
2022/07/01 03:38:03;;;;;;;10.00;1.98;;;23.20;80.70;23.90;98861.00;;;;4978092;28;92408;-58
2022/07/01 03:40:34;;;;;;;4.82;1.65;;;23.30;79.60;23.30;98878.00;;;;4978385;28;92058;-58
2022/07/01 03:43:01;;;;;;;6.78;1.60;;;22.90;78.30;23.60;98865.00;;;;4970528;28;92541;-58
2022/07/01 03:45:27;;;;;;;6.05;1.70;;;23.10;79.70;23.70;98870.00;;;;4962425;28;93013;-59
2022/07/01 03:47:53;;;;;;;8.23;1.70;;;23.30;79.00;23.90;98872.00;;;;4978812;28;92586;-58
2022/07/01 03:50:24;;;;;;;11.00;2.08;;;23.40;77.20;23.50;98878.00;;;;4978438;28;92157;-58
2022/07/01 03:55:36;;;;;;;8.88;1.83;;;23.00;78.00;23.30;98878.00;;;;4977540;28;94242;-59
2022/07/01 03:58:03;;;;;;;6.30;1.70;;;22.80;79.70;23.20;98882.00;;;;4965117;28;95024;-59
2022/07/01 04:00:35;;;;;;;3.33;1.75;;;22.50;79.90;22.70;98895.00;;;;4978752;28;92382;-59
2022/07/01 04:03:03;;;;;;;5.78;2.13;;;22.20;81.70;23.00;98897.00;;;;4979350;28;92058;-59
2022/07/01 04:05:29;;;;;;;4.65;2.08;;;22.60;80.10;23.40;98895.00;;;;4977853;28;93627;-59
2022/07/01 04:07:55;;;;;;;10.63;1.98;;;22.70;80.00;22.50;98893.00;;;;4978471;28;94334;-59
2022/07/01 04:10:22;;;;;;;3.92;1.58;;;22.20;79.10;22.40;98892.00;;;;4946098;28;93449;-59
2022/07/01 04:12:48;;;;;;;4.57;1.60;;;21.90;79.70;22.50;98901.00;;;;4944857;28;91405;-59
2022/07/01 04:15:14;;;;;;;6.88;1.75;;;22.00;79.30;22.30;98895.00;;;;4978993;28;93812;-59
2022/07/01 04:17:41;;;;;;;9.32;2.10;;;21.70;78.90;21.80;98902.00;;;;4964747;28;93214;-58
2022/07/01 04:20:08;;;;;;;5.20;1.98;;;21.30;80.60;21.40;98912.00;;;;4960171;28;93043;-59
2022/07/01 04:22:38;;;;;;;5.65;1.88;;;21.20;80.20;21.70;98905.00;;;;4947002;28;92106;-59
2022/07/01 04:25:05;;;;;;;8.80;2.55;;;21.30;81.60;22.20;98907.00;;;;4960546;28;93831;-59
2022/07/01 04:27:32;;;;;;;6.63;1.48;;;21.70;79.80;22.30;98917.00;;;;4947491;28;93892;-59
2022/07/01 04:29:58;;;;;;;8.10;1.95;;;21.70;78.00;22.30;98917.00;;;;4978088;28;92041;-59
2022/07/01 04:32:25;;;;;;;6.97;1.70;;;21.80;77.10;22.70;98915.00;;;;4960759;28;92158;-59
2022/07/01 04:34:51;;;;;;;4.25;1.58;;;22.20;76.70;22.40;98923.00;;;;4977948;28;92933;-59
2022/07/01 04:37:17;;;;;;;4.53;1.40;;;21.90;74.80;21.90;98916.00;;;;4963188;28;92253;-59
2022/07/01 04:39:44;;;;;;;9.98;2.08;;;21.40;75.20;21.40;98915.00;;;;4980969;28;92440;-59
2022/07/01 04:42:10;;;;;;;7.53;1.60;;;21.10;76.00;22.20;98905.00;;;;4970191;28;92168;-58
2022/07/01 04:44:37;;;;;;;6.75;1.60;;;21.70;75.70;22.80;98907.00;;;;4979738;28;93864;-58
2022/07/01 04:47:04;;;;;;;8.73;1.60;;;22.00;75.30;22.80;98902.00;;;;4971363;28;94014;-59
2022/07/01 04:49:31;;;;;;;5.93;1.50;;;22.30;73.70;23.10;98907.00;;;;4980543;28;91960;-59
2022/07/01 04:51:59;;;;;;;7.25;1.10;;;22.50;73.60;23.30;98915.00;;;;4981137;28;92299;-59
2022/07/01 04:54:25;;;;;;;8.25;1.25;;;22.60;72.80;23.50;98914.00;;;;4938086;28;93856;-59
2022/07/01 04:56:52;;;;;;;4.35;1.20;;;22.80;72.50;23.40;98933.00;;;;4981172;28;92124;-59
2022/07/01 04:59:19;;;;;;;3.85;1.20;;;22.70;68.70;23.50;98921.00;;;;4980827;28;91986;-59
2022/07/01 05:01:50;;;;;;;8.25;1.00;;;22.80;69.00;23.30;98920.00;;;;4980767;28;91519;-58
2022/07/01 05:04:18;;;;;;;4.68;1.30;;;22.70;69.50;23.30;98938.00;;;;4982173;28;92802;-59
2022/07/01 05:06:45;;;;;;;6.90;1.33;;;22.70;69.40;23.30;98937.00;;;;4959957;28;92537;-59
2022/07/01 05:09:12;;;;;;;4.18;1.10;;;22.70;68.10;23.40;98931.00;;;;4944003;28;93007;-59
2022/07/01 05:11:39;;;;;;;7.82;1.48;;;22.70;65.90;23.30;98922.00;;;;4960895;28;92171;-59
2022/07/01 05:14:06;;;;;;;6.93;1.20;;;22.70;67.40;22.90;98927.00;;;;4961113;28;92720;-59
2022/07/01 05:16:34;;;;;;;4.45;1.35;;;22.30;68.10;22.90;98921.00;;;;4960791;28;93002;-58
2022/07/01 05:21:55;;;;;;;7.60;1.23;;;22.10;69.50;23.10;98921.00;;;;4959885;28;92163;-59
2022/07/01 05:24:23;;;;;;;4.72;1.10;;;22.50;69.20;22.60;98931.00;;;;4961064;28;92693;-59
2022/07/01 05:26:50;;;;;;;4.70;1.73;;;22.10;69.20;22.80;98923.00;;;;4959259;28;92619;-59
2022/07/01 05:29:16;;;;;;;1.92;1.10;;;22.20;69.30;22.50;98948.00;;;;4958772;28;93363;-59
2022/07/01 05:31:42;;;;;;;4.97;1.65;;;21.80;69.60;22.60;98930.00;;;;4958306;28;93027;-59
2022/07/01 05:34:09;;;;;;;7.88;1.55;;;22.00;69.60;22.10;98931.00;;;;4958597;28;93922;-58
2022/07/01 05:36:35;;;;;;;3.30;1.30;;;21.70;70.80;23.00;98919.00;;;;4958942;28;93301;-58
2022/07/01 05:39:02;;;;;;;3.85;1.25;;;22.50;69.40;22.10;98920.00;;;;4943222;28;92059;-59
2022/07/01 05:41:28;;;;;;;7.88;1.77;;;21.70;69.30;21.20;98916.00;;;;4960524;28;92130;-58
2022/07/01 05:43:55;;;;;;;6.95;1.60;;;21.10;70.30;20.90;98915.00;;;;4959189;28;94482;-59
2022/07/01 05:46:21;;;;;;;5.05;1.17;;;20.70;71.20;21.70;98944.00;;;;4992183;28;93401;-59
2022/07/01 05:48:47;;;;;;;9.13;1.08;;;21.20;69.60;22.40;98936.00;;;;4974226;28;92154;-59
2022/07/01 05:51:14;;;;;;;3.40;0.95;;;21.80;70.00;22.70;98932.00;;;;4959266;28;92010;-58
2022/07/01 05:53:41;;;;;;;3.65;1.15;;;22.00;67.60;22.60;98918.00;;;;4961062;28;92690;-59
2022/07/01 05:56:07;;;;;;;4.30;1.10;;;21.90;67.10;22.70;98934.00;;;;4957004;28;93109;-59
2022/07/01 05:58:33;;;;;;;1.83;0.80;;;22.10;68.60;22.40;98937.00;;;;4974470;28;93165;-58
2022/07/01 06:01:00;;;;;;;4.43;0.90;;;21.90;66.00;22.20;98931.00;;;;4959998;28;93478;-59
2022/07/01 06:03:26;;;;;;;6.47;0.90;;;21.70;66.50;22.40;98929.00;;;;4960625;28;94234;-59
2022/07/01 06:05:52;;;;;;;4.55;1.25;;;21.80;66.00;22.20;98940.00;;;;4958964;28;95341;-59
2022/07/01 06:08:19;;;;;;;1.98;0.80;;;21.60;67.40;22.20;98962.00;;;;4961461;28;92223;-59
2022/07/01 06:10:45;;;;;;;4.35;0.88;;;21.70;66.30;22.50;98932.00;;;;4959559;28;92195;-58
2022/07/01 06:13:11;;;;;;;5.45;1.10;;;21.80;66.40;22.70;98938.00;;;;4943164;28;92765;-59
2022/07/01 06:15:38;;;;;;;4.70;1.08;;;22.00;66.60;21.70;98940.00;;;;4956073;28;93548;-58
2022/07/01 06:18:04;;;;;;;2.13;1.13;;;21.20;67.10;21.00;98932.00;;;;4960504;28;91992;-59
2022/07/01 06:20:30;;;;;;;5.65;1.10;;;20.70;67.90;20.60;98925.00;;;;4960609;28;92363;-59
2022/07/01 06:22:58;;;;;;;8.10;1.50;;;20.40;69.40;21.00;98937.00;;;;4959306;28;94601;-58
2022/07/01 06:25:24;;;;;;;7.25;1.20;;;20.60;70.20;21.60;98927.00;;;;4957374;28;93108;-58
2022/07/01 06:27:50;;;;;;;8.02;1.30;;;21.00;70.10;21.70;98925.00;;;;4960328;28;92110;-58
2022/07/01 06:30:17;;;;;;;6.85;1.00;;;21.20;70.20;21.90;98934.00;;;;4960488;28;92355;-58
2022/07/01 06:32:43;;;;;;;6.07;1.05;;;21.30;69.00;21.80;98963.00;;;;4959952;28;93088;-59
2022/07/01 06:35:09;;;;;;;5.13;1.10;;;21.20;67.10;21.00;98950.00;;;;4957329;28;92554;-59
2022/07/01 06:37:36;;;;;;;7.47;1.63;;;20.70;67.70;20.00;98940.00;;;;4959269;28;92022;-60
2022/07/01 06:40:07;;;;;;;3.22;0.93;;;19.80;68.70;19.90;98941.00;;;;4958158;28;91443;-58
2022/07/01 06:42:34;;;;;;;6.73;1.20;;;19.90;70.00;19.20;98948.00;;;;4959670;28;94360;-58
2022/07/01 06:45:01;;;;;;;7.75;1.00;;;19.20;69.80;19.50;98946.00;;;;4959841;28;92347;-59
2022/07/01 06:47:28;;;;;;;12.20;1.30;;;19.50;71.10;19.70;98935.00;;;;4957466;28;93422;-58
2022/07/01 06:49:55;;;;;;;8.43;1.25;;;19.60;68.80;19.60;98939.00;;;;4960436;28;91897;-58
2022/07/01 06:52:21;;;;;;;4.80;0.93;;;19.50;67.80;19.70;98943.00;;;;4957763;28;93905;-58
2022/07/01 06:54:48;;;;;;;2.85;1.33;;;19.70;68.30;19.60;98948.00;;;;4959592;28;92484;-58
2022/07/01 06:57:14;;;;;;;4.93;0.90;;;19.50;67.20;19.50;98957.00;;;;4959329;28;92752;-59
2022/07/01 06:59:41;;;;;;;6.95;0.82;;;19.50;65.50;19.30;99016.00;;;;4957103;28;92052;-58
2022/07/01 07:02:07;;;;;;;7.28;1.40;;;19.30;63.00;19.20;98979.00;;;;4941488;28;93650;-59
2022/07/01 07:04:34;;;;;;;3.05;1.10;;;19.20;62.30;19.20;98952.00;;;;4958787;28;92728;-59
2022/07/01 07:07:01;;;;;;;5.90;1.20;;;19.20;63.10;19.30;98962.00;;;;4958608;28;92139;-59
2022/07/01 07:09:28;;;;;;;7.47;1.00;;;19.20;61.70;19.40;98945.00;;;;4958725;28;92202;-59
2022/07/01 07:11:54;;;;;;;8.35;1.20;;;19.40;62.30;19.40;98963.00;;;;4958098;28;94081;-59
2022/07/01 07:14:21;;;;;;;5.30;0.80;;;19.30;61.70;19.50;98982.00;;;;4959666;28;93066;-59
2022/07/01 07:16:47;;;;;;;5.13;1.00;;;19.50;58.40;19.60;98952.00;;;;4958597;28;92452;-59
2022/07/01 07:19:14;;;;;;;6.97;0.93;;;19.60;59.10;19.70;98952.00;;;;4959814;28;92113;-59
2022/07/01 07:21:40;;;;;;;11.02;1.75;;;19.70;58.10;19.50;98970.00;;;;4957976;28;93991;-59
2022/07/01 07:24:06;;;;;;;8.13;1.45;;;19.50;58.80;19.60;98973.00;;;;4958159;28;92391;-59
2022/07/01 07:26:33;;;;;;;10.18;1.25;;;19.60;59.00;19.60;98990.00;;;;4960061;28;92098;-60
2022/07/01 07:28:59;;;;;;;11.68;1.15;;;19.50;58.80;19.30;98968.00;;;;4959939;28;91337;-60
2022/07/01 07:31:26;;;;;;;8.55;0.90;;;19.30;57.50;19.40;98975.00;;;;4959080;28;92819;-61
2022/07/01 07:33:52;;;;;;;5.82;1.00;;;19.30;58.00;19.40;98951.00;;;;4958460;28;92301;-61
2022/07/01 07:36:18;;;;;;;3.22;0.77;;;19.30;58.20;19.40;98975.00;;;;4959757;28;92842;-60
2022/07/01 07:38:45;;;;;;;6.82;1.50;;;19.40;57.60;19.30;98984.00;;;;4957799;28;92477;-60
2022/07/01 07:41:11;;;;;;;4.78;1.00;;;19.30;58.40;19.30;98981.00;;;;4954919;28;93970;-60
2022/07/01 07:43:37;;;;;;;2.65;1.00;;;19.30;57.20;19.20;98949.00;;;;4956797;28;92630;-61
2022/07/01 07:46:04;;;;;;;7.00;1.00;;;19.20;57.90;19.40;98961.00;;;;4959228;28;92144;-60
2022/07/01 07:48:31;;;;;;;4.18;1.38;;;19.50;58.90;19.30;98972.00;;;;4956707;28;92447;-60
2022/07/01 07:50:57;;;;;;;4.57;1.02;;;19.30;57.70;19.50;98980.00;;;;4961287;28;93905;-60
2022/07/01 07:53:24;;;;;;;3.28;0.80;;;19.50;58.60;19.60;99005.00;;;;4959204;28;92290;-60
2022/07/01 07:55:50;;;;;;;6.05;0.90;;;19.60;55.60;19.60;98980.00;;;;4958481;28;91997;-60
2022/07/01 07:58:17;;;;;;;4.90;1.10;;;19.50;56.70;19.50;98984.00;;;;4957039;28;92665;-60
2022/07/01 08:00:43;;;;;;;6.57;1.17;;;19.40;55.30;19.50;98978.00;;;;4957060;28;93810;-60
2022/07/01 08:03:10;;;;;;;3.75;0.90;;;19.40;56.00;19.60;99010.00;;;;4981346;28;94608;-60
2022/07/01 08:05:36;;;;;;;7.10;1.30;;;19.50;56.10;19.60;98994.00;;;;4955604;28;92959;-60
2022/07/01 08:08:03;;;;;;;3.05;1.08;;;19.60;56.30;19.50;98996.00;;;;4940926;28;92110;-60
2022/07/01 08:10:31;;;;;;;4.53;0.90;;;19.40;56.50;19.40;98983.00;;;;4958034;28;93666;-60
2022/07/01 08:13:07;;;;;;;7.55;0.93;;;19.40;56.80;19.50;99002.00;;;;4943803;28;93524;-60
2022/07/01 08:15:34;;;;;;;9.82;1.25;;;19.40;56.30;19.30;98987.00;;;;4974261;28;92085;-60
2022/07/01 08:18:01;;;;;;;11.73;1.15;;;19.20;55.80;19.40;98989.00;;;;4945206;28;91385;-60
2022/07/01 08:20:29;;;;;;;5.20;0.90;;;19.40;56.00;19.60;99000.00;;;;4960445;28;95868;-59
2022/07/01 08:23:02;;;;;;;4.82;0.75;;;19.60;56.20;19.80;99003.00;;;;4959746;28;93847;-60
2022/07/01 08:25:34;;;;;;;4.03;0.98;;;19.80;56.80;19.90;98993.00;;;;4959134;28;93010;-60
2022/07/01 08:28:06;;;;;;;5.40;1.00;;;19.90;56.50;20.00;98996.00;;;;4960761;28;92443;-60
2022/07/01 08:30:33;;;;;;;10.95;1.40;;;20.00;57.20;20.10;98976.00;;;;4961341;28;93695;-60
2022/07/01 08:33:03;;;;;;;7.47;1.40;;;20.10;55.90;20.20;99026.00;;;;4958970;28;93278;-61
2022/07/01 08:35:30;;;;;;;2.90;0.93;;;20.10;56.20;20.00;99025.00;;;;4961282;28;92638;-60
2022/07/01 08:37:58;;;;;;;5.15;0.75;;;20.00;54.90;19.90;99027.00;;;;4943818;28;92044;-60
2022/07/01 08:40:26;;;;;;;6.35;0.77;;;19.90;53.80;19.90;99016.00;;;;4961046;28;94619;-60
2022/07/01 08:43:00;;;;;;;3.70;0.93;;;19.90;53.60;19.90;99023.00;;;;4960285;28;95638;-60
2022/07/01 08:45:37;;;;;;;3.15;1.13;;;19.90;53.00;19.60;99034.00;;;;4959157;28;92174;-61
2022/07/01 08:48:05;;;;;;;4.80;1.05;;;19.60;56.10;19.60;99033.00;;;;4957654;28;92515;-60
2022/07/01 08:50:39;;;;;;;2.90;0.90;;;19.50;55.80;19.40;99008.00;;;;4959582;28;93716;-60
2022/07/01 08:53:09;;;;;;;4.07;1.08;;;19.30;55.20;19.50;99040.00;;;;4962893;28;94512;-60
2022/07/01 08:58:37;;;;;;;4.30;0.82;;;19.50;54.50;19.70;99032.00;;;;4928469;28;92317;-60
2022/07/01 09:01:24;;;;;;;6.55;1.00;;;19.60;54.20;19.90;99029.00;;;;4991518;28;93674;-61
2022/07/01 09:03:56;;;;;;;3.75;0.95;;;19.90;54.80;19.90;99023.00;;;;4975010;28;94542;-60
2022/07/01 09:06:28;;;;;;;6.57;1.13;;;19.80;54.50;19.90;99014.00;;;;4962722;28;92830;-61
2022/07/01 09:09:17;;;;;;;2.83;0.90;;;19.90;55.30;20.20;99017.00;;;;4945577;28;91684;-60
2022/07/01 09:11:54;;;;;;;4.10;0.80;;;20.00;55.20;20.20;99019.00;;;;4960561;28;93058;-60
2022/07/01 09:14:34;;;;;;;9.27;1.50;;;20.20;55.90;20.20;99005.00;;;;4958750;28;93845;-60
2022/07/01 09:17:11;;;;;;;4.93;1.50;;;20.00;54.10;20.20;99028.00;;;;4964050;28;94264;-60
2022/07/01 09:19:42;;;;;;;6.18;1.10;;;20.10;55.70;20.20;99026.00;;;;4962211;28;93030;-61
2022/07/01 09:22:08;;;;;;;3.70;0.95;;;20.20;55.30;20.10;99013.00;;;;4964975;28;92979;-60
2022/07/01 09:24:45;;;;;;;9.73;1.38;;;20.00;56.10;20.30;99016.00;;;;4962166;28;92566;-60
2022/07/01 09:27:17;;;;;;;4.78;1.40;;;20.20;56.40;20.40;99025.00;;;;4967940;28;92070;-60
2022/07/01 09:29:49;;;;;;;6.77;1.50;;;20.30;54.80;20.30;99006.00;;;;4964093;28;91962;-60
2022/07/01 09:32:22;;;;;;;5.15;0.90;;;20.20;55.90;20.30;99025.00;;;;4964322;28;93950;-60
2022/07/01 09:34:57;;;;;;;4.75;1.10;;;20.30;56.00;20.30;99056.00;;;;4958801;28;92853;-60
2022/07/01 09:37:26;;;;;;;1.53;0.93;;;20.30;55.30;20.20;99007.00;;;;4961490;28;92114;-60
2022/07/01 09:39:57;;;;;;;10.07;1.50;;;20.10;54.10;19.90;99031.00;;;;4968114;28;92409;-60
2022/07/01 09:42:27;;;;;;;3.15;1.10;;;19.80;55.60;20.00;99011.00;;;;4968038;28;94467;-61
2022/07/01 09:45:13;;;;;;;8.15;1.10;;;19.90;52.70;20.20;99059.00;;;;4965207;28;93286;-60
2022/07/01 09:47:44;;;;;;;2.13;1.17;;;20.00;53.10;20.20;99013.00;;;;4963626;28;92035;-58
2022/07/01 09:50:11;;;;;;;8.20;1.00;;;20.10;51.40;20.20;99020.00;;;;4967401;28;92557;-58
2022/07/01 09:52:58;;;;;;;4.57;0.90;;;20.10;51.40;20.30;99015.00;;;;4964367;28;93125;-58
2022/07/01 09:55:27;;;;;;;2.75;0.90;;;20.10;51.40;20.30;99021.00;;;;4962567;28;93119;-58
2022/07/01 09:57:53;;;;;;;13.30;1.30;;;20.20;52.20;20.30;99009.00;;;;4966308;28;92221;-58
2022/07/01 10:00:20;;;;;;;7.43;1.20;;;20.20;52.30;20.30;99017.00;;;;4973745;28;92333;-58
2022/07/01 10:02:47;;;;;;;7.47;0.80;;;20.20;52.80;20.40;99022.00;;;;4972543;28;92968;-58
2022/07/01 10:05:20;;;;;;;13.20;1.10;;;20.20;53.30;20.30;99022.00;;;;4971687;28;93138;-59
2022/07/01 10:08:08;;;;;;;9.20;1.30;;;20.20;54.20;20.40;99017.00;;;;4968628;28;94258;-60
2022/07/01 10:11:24;;;;;;;5.95;1.20;;;20.30;54.40;20.50;99009.00;;;;4964641;28;92125;-57
2022/07/01 10:13:51;;;;;;;3.75;1.30;;;20.40;53.50;20.60;99011.00;;;;4965223;28;92819;-59
2022/07/01 10:16:18;;;;;;;5.80;0.93;;;20.50;53.50;20.60;99022.00;;;;4967779;28;92909;-59
2022/07/01 10:18:44;;;;;;;5.22;1.48;;;20.40;52.50;20.40;99001.00;;;;4971818;28;92373;-59
2022/07/01 10:21:29;;;;;;;8.75;1.30;;;20.30;53.60;20.50;99029.00;;;;4970395;28;92558;-58
2022/07/01 10:24:17;;;;;;;14.52;1.55;;;20.40;53.50;20.40;99018.00;;;;4966350;28;92736;-59
2022/07/01 10:26:45;;;;;;;3.22;0.98;;;20.20;53.80;20.40;99022.00;;;;4967727;28;92577;-60
2022/07/01 10:29:38;;;;;;;6.43;1.08;;;20.40;54.70;20.60;99057.00;;;;4967269;28;93063;-60
2022/07/01 10:32:28;;;;;;;3.15;1.10;;;20.50;52.80;20.50;99050.00;;;;4965127;28;92220;-63
2022/07/01 10:35:07;;;;;;;6.68;1.17;;;20.40;52.70;20.60;99020.00;;;;4966128;28;95114;-60
2022/07/01 10:37:33;;;;;;;7.13;1.10;;;20.40;52.80;20.50;99021.00;;;;4962770;28;94528;-60
2022/07/01 10:40:02;;;;;;;4.03;1.00;;;20.40;52.40;20.50;99047.00;;;;4967527;28;92556;-61
2022/07/01 10:42:37;;;;;;;10.93;1.13;;;20.30;52.80;20.50;99031.00;;;;4969792;28;93067;-61
2022/07/01 10:45:11;;;;;;;6.30;1.23;;;20.40;52.20;20.60;99016.00;;;;4970539;28;92781;-61
2022/07/01 10:47:39;;;;;;;5.78;1.10;;;20.50;51.70;20.70;99050.00;;;;4966538;28;92399;-60
2022/07/01 10:50:15;;;;;;;3.20;0.93;;;20.50;51.40;20.70;99049.00;;;;4958560;28;92296;-63
2022/07/01 10:53:04;;;;;;;4.47;1.10;;;20.60;51.30;20.60;99048.00;;;;4962038;28;92314;-60
2022/07/01 10:55:40;;;;;;;4.63;1.50;;;20.40;51.20;20.60;99017.00;;;;4951603;28;92571;-61
2022/07/01 10:58:06;;;;;;;4.38;1.30;;;20.50;52.30;20.70;99007.00;;;;4968439;28;93640;-62
2022/07/01 11:00:35;;;;;;;3.45;1.20;;;20.60;53.60;20.40;99055.00;;;;4962463;28;93410;-61
2022/07/01 11:03:17;;;;;;;6.72;1.13;;;20.30;53.10;20.40;99034.00;;;;4977974;28;92383;-61
2022/07/01 11:05:46;;;;;;;5.93;1.40;;;20.20;53.30;20.40;99055.00;;;;4975303;28;92522;-62
2022/07/01 11:08:13;;;;;;;5.57;1.40;;;20.30;53.30;20.50;99054.00;;;;4976998;28;93917;-60
2022/07/01 11:10:41;;;;;;;8.10;1.30;;;20.40;54.20;20.30;99034.00;;;;4977069;28;92082;-60
2022/07/01 11:13:07;;;;;;;3.47;1.42;;;20.20;52.90;20.40;99028.00;;;;4981874;28;92217;-61
2022/07/01 11:15:34;;;;;;;7.15;1.35;;;20.30;53.80;20.60;99031.00;;;;4977099;28;92985;-60
2022/07/01 11:18:01;;;;;;;3.47;0.95;;;20.30;53.40;20.60;99010.00;;;;4979219;28;92273;-61
2022/07/01 11:20:32;;;;;;;5.07;1.25;;;20.40;55.20;20.60;99021.00;;;;4978031;28;92018;-62
2022/07/01 11:22:59;;;;;;;4.80;1.30;;;20.50;53.50;20.60;99021.00;;;;4980706;28;93452;-61
2022/07/01 11:25:26;;;;;;;4.30;1.40;;;20.50;53.50;20.70;99028.00;;;;4977448;28;93716;-61
2022/07/01 11:27:53;;;;;;;1.80;0.82;;;20.50;53.00;20.60;99007.00;;;;4978319;28;93475;-61
2022/07/01 11:30:21;;;;;;;3.80;1.20;;;20.40;53.40;20.70;99042.00;;;;4979056;28;92445;-62
2022/07/01 11:32:57;;;;;;;3.38;1.00;;;20.50;53.50;20.80;99014.00;;;;4978714;28;92426;-60
2022/07/01 11:41:09;;;;;;;2.10;1.13;;;20.60;52.40;20.70;99041.00;;;;4976892;28;92772;-62
2022/07/01 11:43:39;;;;;;;6.10;1.00;;;20.50;53.00;20.70;99019.00;;;;4978559;28;91298;-60